Time;durP1;ratioP1;P1;durP2;ratioP2;P2;SDS_P1;SDS_P2;PMS_P1;PMS_P2;Temp;Humidity;BMP_temperature;BMP_pressure;BME280_temperature;BME280_humidity;BME280_pressure;Samples;Min_cycle;Max_cycle;Signal;HPM_P1;HPM_P2
2022/07/07 07:24:25;;;;;;;7.85;3.00;;;;;;;;;;6182254;23;20032;-82
2022/07/07 07:26:55;;;;;;;10.45;3.22;;;18.00;99.90;;;;;;6172325;23;20047;-82
2022/07/07 07:29:21;;;;;;;5.85;2.95;;;;;;;;;;6145496;23;20492;-82
2022/07/07 07:31:47;;;;;;;9.80;3.85;;;18.00;99.90;;;;;;6169695;23;19998;-82
2022/07/07 07:34:14;;;;;;;6.22;3.60;;;;;;;;;;6165435;23;20129;-81
2022/07/07 07:36:43;;;;;;;12.20;3.45;;;18.50;99.90;;;;;;6174613;23;20024;-82
2022/07/07 07:39:11;;;;;;;8.75;3.60;;;18.70;99.90;;;;;;6201174;23;20015;-84
2022/07/07 07:41:38;;;;;;;13.18;4.20;;;19.00;99.90;;;;;;6172712;23;20005;-82
2022/07/07 07:44:05;;;;;;;12.18;4.30;;;19.00;99.90;;;;;;6149443;23;20016;-81
2022/07/07 07:46:31;;;;;;;9.57;4.28;;;19.10;99.90;;;;;;6198878;23;20009;-82
2022/07/07 07:48:59;;;;;;;12.40;4.25;;;19.70;99.90;;;;;;6172855;23;20496;-82
2022/07/07 07:51:27;;;;;;;11.05;3.45;;;19.60;99.90;;;;;;6171288;23;20005;-81
2022/07/07 07:53:54;;;;;;;8.45;3.35;;;19.90;99.90;;;;;;6201562;23;20020;-82
2022/07/07 07:56:20;;;;;;;11.77;3.50;;;19.90;99.90;;;;;;6204308;23;20454;-82
2022/07/07 07:58:46;;;;;;;7.65;3.00;;;19.70;99.90;;;;;;6207060;23;20009;-83
2022/07/07 08:01:15;;;;;;;6.60;2.95;;;;;;;;;;6206594;23;20005;-82
2022/07/07 08:03:41;;;;;;;6.15;2.80;;;19.90;99.90;;;;;;6180482;23;20061;-82
2022/07/07 08:06:10;;;;;;;5.88;2.70;;;19.90;99.90;;;;;;6180736;23;20016;-82
2022/07/07 08:08:36;;;;;;;4.93;2.65;;;20.10;99.90;;;;;;6205095;23;20009;-83
2022/07/07 08:11:07;;;;;;;9.10;3.25;;;20.30;99.70;;;;;;6178690;23;20012;-82
2022/07/07 08:13:34;;;;;;;8.68;3.42;;;;;;;;;;6179408;23;20005;-83
2022/07/07 08:16:00;;;;;;;7.40;3.05;;;20.30;99.50;;;;;;6201894;23;20009;-83
2022/07/07 08:18:28;;;;;;;7.70;3.00;;;;;;;;;;6201727;23;20001;-84
2022/07/07 08:20:54;;;;;;;6.60;2.33;;;;;;;;;;6151038;23;20009;-82
2022/07/07 08:23:20;;;;;;;5.97;2.92;;;;;;;;;;6199638;23;20024;-81
2022/07/07 08:25:47;;;;;;;8.90;3.10;;;;;;;;;;6173576;23;20008;-82
2022/07/07 08:28:13;;;;;;;6.55;3.22;;;;;;;;;;6174073;23;20074;-81
2022/07/07 08:30:39;;;;;;;9.85;3.67;;;;;;;;;;6174315;23;20011;-81
2022/07/07 08:33:06;;;;;;;8.43;3.45;;;20.10;99.80;;;;;;6200924;23;20001;-82
2022/07/07 08:35:33;;;;;;;10.57;3.10;;;;;;;;;;6174376;23;20098;-82
2022/07/07 08:37:59;;;;;;;6.25;3.30;;;;;;;;;;6175479;23;20028;-83
2022/07/07 08:40:25;;;;;;;6.60;2.70;;;;;;;;;;6201131;23;20024;-82
2022/07/07 08:42:54;;;;;;;10.02;2.78;;;;;;;;;;6175480;23;19989;-81
2022/07/07 08:45:21;;;;;;;8.87;3.30;;;;;;;;;;6198066;23;19997;-81
2022/07/07 08:47:47;;;;;;;7.93;3.95;;;;;;;;;;6171666;23;20009;-81
2022/07/07 08:50:13;;;;;;;6.35;2.60;;;20.00;99.90;;;;;;6196922;23;20012;-81
2022/07/07 08:52:40;;;;;;;6.80;2.47;;;;;;;;;;6198189;23;20008;-82
2022/07/07 08:55:07;;;;;;;4.70;2.30;;;20.10;99.90;;;;;;6204839;23;20013;-83
2022/07/07 08:57:35;;;;;;;4.20;2.10;;;20.30;99.90;;;;;;6175246;23;20008;-82
2022/07/07 09:00:01;;;;;;;5.75;2.30;;;;;;;;;;6199851;23;20005;-82
2022/07/07 09:02:27;;;;;;;5.75;2.42;;;;;;;;;;6205069;23;20013;-81
2022/07/07 09:04:53;;;;;;;8.75;2.55;;;;;;;;;;6181710;23;20033;-82
2022/07/07 09:07:20;;;;;;;4.88;2.00;;;20.40;99.90;;;;;;6178019;23;19997;-83
2022/07/07 09:09:52;;;;;;;6.45;2.30;;;20.40;99.90;;;;;;6201789;23;20028;-82
2022/07/07 09:12:19;;;;;;;4.22;2.13;;;19.40;99.90;;;;;;6199239;23;20331;-81
2022/07/07 09:14:50;;;;;;;6.32;2.22;;;20.40;99.90;;;;;;6202604;23;20021;-82
2022/07/07 09:17:29;;;;;;;4.47;2.25;;;19.70;99.80;;;;;;6205644;23;20005;-82
2022/07/07 09:20:08;;;;;;;7.03;2.45;;;20.50;99.70;;;;;;6208475;23;20031;-82
2022/07/07 09:23:00;;;;;;;6.38;2.75;;;20.60;99.90;;;;;;6209463;23;20009;-82
2022/07/07 09:25:27;;;;;;;6.75;2.67;;;20.70;99.40;;;;;;6176358;23;20013;-82
2022/07/07 09:28:02;;;;;;;7.35;2.35;;;20.90;99.30;;;;;;6201511;23;20012;-82
2022/07/07 09:30:57;;;;;;;5.28;2.58;;;21.00;98.90;;;;;;6199417;23;20025;-82
2022/07/07 09:33:25;;;;;;;7.68;2.53;;;21.30;98.40;;;;;;6169391;23;20449;-82
2022/07/07 09:38:39;;;;;;;7.38;2.78;;;22.50;99.00;;;;;;6202317;23;20013;-81
2022/07/07 09:41:13;;;;;;;3.30;2.10;;;21.80;97.50;;;;;;6200794;23;20001;-81
2022/07/07 09:43:51;;;;;;;5.30;2.67;;;21.70;97.70;;;;;;6151461;23;20013;-83
2022/07/07 09:46:20;;;;;;;8.48;3.13;;;21.70;98.20;;;;;;6197578;23;20065;-82
2022/07/07 09:48:54;;;;;;;8.65;2.67;;;23.10;98.70;;;;;;6172096;23;20077;-81
2022/07/07 09:51:24;;;;;;;7.55;2.88;;;21.60;97.40;;;;;;6170732;23;20008;-82
2022/07/07 09:54:15;;;;;;;5.50;2.75;;;21.50;97.50;;;;;;6199656;23;20001;-82
2022/07/07 09:56:45;;;;;;;7.50;2.38;;;21.60;98.50;;;;;;6177759;23;20016;-82
2022/07/07 09:59:41;;;;;;;4.57;2.50;;;21.50;98.20;;;;;;6203641;23;19989;-82
2022/07/07 10:02:19;;;;;;;6.18;2.40;;;21.30;98.40;;;;;;6206229;23;20430;-82
2022/07/07 10:04:56;;;;;;;6.13;2.72;;;21.30;99.40;;;;;;6182283;23;20016;-83
2022/07/07 10:07:44;;;;;;;3.60;2.50;;;23.70;99.90;;;;;;6208792;23;20016;-83
2022/07/07 10:10:13;;;;;;;4.30;2.47;;;21.50;99.90;;;;;;6207641;23;20001;-82
2022/07/07 10:12:49;;;;;;;6.70;2.20;;;21.70;99.90;;;;;;6180554;23;20001;-84
2022/07/07 10:15:16;;;;;;;4.13;2.35;;;;;;;;;;6205568;23;20069;-83
2022/07/07 10:17:44;;;;;;;6.30;2.60;;;22.10;99.00;;;;;;6206009;23;20009;-82
2022/07/07 10:20:15;;;;;;;5.22;2.60;;;;;;;;;;6208997;23;20060;-83
2022/07/07 10:22:41;;;;;;;4.57;2.38;;;;;;;;;;6182241;23;20005;-82
2022/07/07 10:25:09;;;;;;;6.90;3.40;;;22.00;99.40;;;;;;6183895;23;20040;-83
2022/07/07 10:27:35;;;;;;;6.00;2.75;;;;;;;;;;6159638;23;20024;-82
2022/07/07 10:30:04;;;;;;;5.22;2.50;;;21.90;98.20;;;;;;6210250;23;19989;-82
2022/07/07 10:32:30;;;;;;;4.32;1.80;;;;;;;;;;6159319;23;20029;-85
2022/07/07 10:35:01;;;;;;;5.80;3.20;;;21.90;97.80;;;;;;6182423;23;20008;-85
2022/07/07 10:37:29;;;;;;;3.83;2.20;;;21.90;97.40;;;;;;6184314;23;20073;-84
2022/07/07 10:39:57;;;;;;;5.60;2.35;;;21.80;97.40;;;;;;6210368;23;20009;-87
2022/07/07 10:42:40;;;;;;;3.20;1.88;;;21.80;97.20;;;;;;6211586;23;20025;-87
2022/07/07 10:45:10;;;;;;;5.88;2.80;;;21.80;97.30;;;;;;6210750;23;19989;-86
2022/07/07 10:47:36;;;;;;;;;;;24.70;98.80;;;;;;6211013;23;20001;-84
2022/07/07 10:50:03;;;;;;;3.63;1.92;;;21.80;98.60;;;;;;6183181;23;19901;-84
2022/07/07 10:52:40;;;;;;;5.40;2.00;;;21.60;99.10;;;;;;6184551;23;20008;-84
2022/07/07 10:55:09;;;;;;;5.80;2.97;;;21.50;99.50;;;;;;6208289;23;20008;-83
2022/07/07 10:57:47;;;;;;;5.93;1.80;;;21.40;99.50;;;;;;6209656;23;20024;-85
2022/07/07 11:00:21;;;;;;;3.17;1.45;;;21.30;99.40;;;;;;6158789;23;20022;-86
2022/07/07 11:02:47;;;;;;;4.80;1.90;;;;;;;;;;6127360;23;19994;-85
2022/07/07 11:05:14;;;;;;;3.38;1.65;;;;;;;;;;6152589;23;19990;-85
2022/07/07 11:07:41;;;;;;;5.38;2.10;;;20.90;99.90;;;;;;6127323;23;19998;-84
2022/07/07 11:10:12;;;;;;;4.10;1.70;;;20.90;99.90;;;;;;6126542;23;19990;-87
2022/07/07 11:12:47;;;;;;;2.80;1.70;;;20.80;99.90;;;;;;6127194;23;20001;-84
2022/07/07 11:15:20;;;;;;;6.10;1.77;;;20.80;99.90;;;;;;6154500;23;20018;-86
2022/07/07 11:17:56;;;;;;;5.32;1.80;;;21.60;99.90;;;;;;6153359;23;20012;-85
2022/07/07 11:20:24;;;;;;;8.48;1.75;;;20.90;99.90;;;;;;6129431;23;20126;-84
2022/07/07 11:25:36;;;;;;;;;;;;;;;;;;;;;
2022/07/07 11:28:05;;;;;;;4.63;1.73;;;24.00;99.90;;;;;;6244163;23;20004;-84
2022/07/07 11:30:48;;;;;;;2.75;1.55;;;;;;;;;;6242154;23;20052;-85
2022/07/07 11:33:15;;;;;;;2.85;1.10;;;;;;;;;;6236246;23;20009;-86
2022/07/07 11:35:42;;;;;;;1.38;1.00;;;;;;;;;;6187012;23;20013;-85
2022/07/07 11:38:12;;;;;;;1.60;0.95;;;21.70;98.10;;;;;;6214009;23;19989;-84
2022/07/07 11:40:39;;;;;;;2.63;1.20;;;21.80;97.90;;;;;;6187542;23;19989;-84
2022/07/07 11:43:23;;;;;;;1.52;0.90;;;21.90;97.50;;;;;;6163431;23;19989;-86
2022/07/07 11:45:52;;;;;;;5.25;2.58;;;22.00;97.90;;;;;;6200077;23;20271;-85
2022/07/07 11:48:23;;;;;;;1.80;0.80;;;22.10;96.70;;;;;;6208246;23;20039;-82
2022/07/07 11:50:52;;;;;;;;;;;22.60;97.60;;;;;;6183802;23;20005;-84
2022/07/07 11:53:29;;;;;;;1.40;0.73;;;22.40;95.80;;;;;;6202315;23;19924;-83
2022/07/07 11:56:08;;;;;;;1.17;0.80;;;22.50;95.30;;;;;;6181479;23;20267;-84
2022/07/07 11:58:38;;;;;;;2.13;1.08;;;21.80;95.30;;;;;;6158695;23;20378;-82
2022/07/07 12:01:06;;;;;;;2.67;0.85;;;23.20;95.60;;;;;;6181330;23;20024;-84
2022/07/07 12:03:36;;;;;;;1.70;0.90;;;22.50;94.80;;;;;;6203696;23;20009;-83
2022/07/07 12:06:08;;;;;;;3.72;1.08;;;22.40;95.50;;;;;;6183893;23;19989;-85
2022/07/07 12:08:37;;;;;;;4.55;1.10;;;23.20;96.00;;;;;;6162797;23;20023;-85
2022/07/07 12:11:14;;;;;;;1.27;0.93;;;22.80;94.20;;;;;;6204039;23;20016;-82
2022/07/07 12:13:45;;;;;;;2.05;0.90;;;;;;;;;;6200295;23;20021;-81
2022/07/07 12:16:14;;;;;;;1.88;1.10;;;;;;;;;;6199113;23;20009;-83
2022/07/07 12:18:47;;;;;;;1.25;0.80;;;23.00;94.00;;;;;;6174609;23;20016;-83
2022/07/07 12:21:28;;;;;;;1.35;0.90;;;22.90;94.20;;;;;;6199375;23;20474;-83
2022/07/07 12:23:54;;;;;;;1.83;1.00;;;;;;;;;;6150640;23;20021;-83
2022/07/07 12:26:29;;;;;;;1.42;1.10;;;23.80;94.90;;;;;;6174026;23;20054;-83
2022/07/07 12:29:11;;;;;;;2.47;0.93;;;22.30;94.50;;;;;;6175436;23;20017;-80
2022/07/07 12:31:41;;;;;;;1.75;0.95;;;22.30;94.00;;;;;;6150843;23;20009;-83
2022/07/07 12:34:38;;;;;;;1.58;1.10;;;22.30;93.80;;;;;;6180695;23;20004;-83
2022/07/07 12:37:11;;;;;;;3.55;1.10;;;22.20;93.30;;;;;;6209251;23;20080;-86
2022/07/07 12:39:44;;;;;;;1.58;0.90;;;22.10;93.10;;;;;;6185334;23;20009;-85
2022/07/07 12:42:24;;;;;;;1.58;0.80;;;22.00;93.10;;;;;;6161234;23;19997;-85
2022/07/07 12:44:52;;;;;;;2.20;1.10;;;18.80;91.60;;;;;;6161723;23;20017;-84
2022/07/07 12:47:28;;;;;;;4.00;1.35;;;21.90;92.30;;;;;;6184152;23;20005;-84
2022/07/07 12:49:59;;;;;;;3.55;1.10;;;21.70;92.20;;;;;;6181786;23;20041;-83
2022/07/07 12:53:13;;;;;;;;;;;;;;;;;;;;;
2022/07/07 12:55:46;;;;;;;;;;;22.10;92.40;;;;;;6177939;23;20013;-84
2022/07/07 12:58:22;;;;;;;2.60;1.13;;;22.30;91.90;;;;;;6203693;23;19927;-83
2022/07/07 13:01:01;;;;;;;2.10;1.33;;;22.20;91.90;;;;;;6203814;23;20009;-84
2022/07/07 13:03:34;;;;;;;2.40;1.20;;;;;;;;;;6183450;23;20024;-83
2022/07/07 13:06:10;;;;;;;2.28;1.15;;;22.10;92.40;;;;;;6182716;23;20020;-82
2022/07/07 13:08:36;;;;;;;1.50;1.00;;;;;;;;;;6194728;23;20008;-82
2022/07/07 13:11:18;;;;;;;2.38;1.00;;;22.10;91.70;;;;;;6167516;23;20065;-82
2022/07/07 13:13:51;;;;;;;5.40;1.60;;;20.50;91.50;;;;;;6172478;23;19997;-82
2022/07/07 13:16:19;;;;;;;3.60;1.23;;;22.40;91.60;;;;;;6198997;23;20005;-81
2022/07/07 13:18:47;;;;;;;3.90;1.55;;;;;;;;;;6199493;23;20068;-82
2022/07/07 13:21:17;;;;;;;1.63;1.10;;;22.60;91.30;;;;;;6175004;23;20001;-82
2022/07/07 13:24:11;;;;;;;2.58;1.10;;;23.00;90.50;;;;;;6174225;23;20036;-81
2022/07/07 13:27:05;;;;;;;1.85;1.10;;;22.70;90.70;;;;;;6179735;23;20009;-84
2022/07/07 13:30:38;;;;;;;3.85;1.10;;;22.80;90.10;;;;;;6203699;23;20011;-83
2022/07/07 13:34:09;;;;;;;4.35;1.10;;;22.70;90.00;;;;;;6190850;23;20009;-83
2022/07/07 13:37:30;;;;;;;2.38;1.10;;;22.30;90.20;;;;;;6198101;23;20013;-82
2022/07/07 13:40:58;;;;;;;2.83;1.00;;;22.20;90.50;;;;;;6187630;23;20069;-84
2022/07/07 13:44:39;;;;;;;2.08;1.08;;;22.20;90.50;;;;;;6205851;23;20080;-83
2022/07/07 13:47:49;;;;;;;2.70;0.98;;;22.20;90.30;;;;;;6205138;23;20073;-83
2022/07/07 13:51:22;;;;;;;6.70;1.40;;;22.20;90.50;;;;;;6204739;23;20019;-83
2022/07/07 13:54:53;;;;;;;3.22;1.10;;;22.20;90.20;;;;;;6204130;23;19997;-83
2022/07/07 13:58:31;;;;;;;;;;;;;;;;;;;;;
2022/07/07 14:05:37;;;;;;;3.50;1.30;;;22.40;90.40;;;;;;6130172;23;20111;-83
2022/07/07 14:08:48;;;;;;;2.00;1.20;;;22.50;90.10;;;;;;6084883;23;20051;-88
2022/07/07 14:12:08;;;;;;;3.83;1.38;;;22.70;90.00;;;;;;6118397;23;20021;-83
2022/07/07 14:15:06;;;;;;;3.25;1.35;;;22.60;90.30;;;;;;6174756;23;20007;-83
2022/07/07 14:17:53;;;;;;;2.67;1.35;;;22.50;89.80;;;;;;6180543;23;20032;-82
2022/07/07 14:21:02;;;;;;;5.43;1.35;;;22.50;90.20;;;;;;6199593;23;20072;-82
2022/07/07 14:23:55;;;;;;;2.67;1.23;;;22.40;90.30;;;;;;6176432;23;20005;-82
2022/07/07 14:27:06;;;;;;;2.17;1.45;;;21.00;90.80;;;;;;6173956;23;20009;-82
2022/07/07 14:30:25;;;;;;;4.03;1.20;;;22.20;90.50;;;;;;6202550;23;20002;-82
2022/07/07 14:33:21;;;;;;;3.60;1.20;;;22.00;90.50;;;;;;6173593;23;20068;-83
2022/07/07 14:36:32;;;;;;;5.78;1.17;;;22.00;90.30;;;;;;6201292;23;20013;-82
2022/07/07 14:39:24;;;;;;;5.75;1.27;;;21.90;90.50;;;;;;6204240;23;20017;-82
2022/07/07 14:42:12;;;;;;;3.60;1.20;;;21.80;90.60;;;;;;6180182;23;20012;-84
2022/07/07 14:44:56;;;;;;;1.70;0.98;;;21.80;90.50;;;;;;6175212;23;20028;-83
2022/07/07 14:48:04;;;;;;;3.42;1.40;;;21.70;90.60;;;;;;6177600;23;20289;-82
2022/07/07 14:50:51;;;;;;;4.47;1.15;;;21.70;90.70;;;;;;6207424;23;20002;-85
2022/07/07 14:53:45;;;;;;;4.55;1.40;;;20.00;90.40;;;;;;6157130;23;20012;-83
2022/07/07 14:56:38;;;;;;;3.42;1.30;;;21.70;91.00;;;;;;6202591;23;20009;-83
2022/07/07 14:59:27;;;;;;;4.10;1.90;;;21.80;91.30;;;;;;6204067;23;20005;-84
2022/07/07 15:02:18;;;;;;;5.13;1.20;;;21.80;90.80;;;;;;6155069;23;20060;-83
2022/07/07 15:20:32;;;;;;;4.15;1.15;;;;;;;;;;6205300;23;20033;-85
2022/07/07 15:22:58;;;;;;;3.00;1.10;;;;;;;;;;6208745;23;20012;-83
2022/07/07 15:25:25;;;;;;;4.25;1.35;;;;;;;;;;6234147;23;20005;-85
2022/07/07 15:27:55;;;;;;;3.08;1.08;;;21.80;91.00;;;;;;6236800;23;20022;-82
2022/07/07 15:30:21;;;;;;;3.78;1.20;;;;;;;;;;6210623;23;19996;-83
2022/07/07 15:32:47;;;;;;;2.40;0.93;;;;;;;;;;6208975;23;20004;-83
2022/07/07 15:35:15;;;;;;;4.05;1.00;;;;;;;;;;6211421;23;20035;-82
2022/07/07 15:37:42;;;;;;;1.88;0.80;;;21.80;91.20;;;;;;6211644;23;20060;-83
2022/07/07 15:40:13;;;;;;;1.75;0.70;;;21.90;91.10;;;;;;6235029;23;20326;-83
2022/07/07 15:42:41;;;;;;;3.75;1.05;;;;;;;;;;6210863;23;19996;-82
2022/07/07 15:45:08;;;;;;;1.95;0.90;;;;;;;;;;6211249;23;20011;-83
2022/07/07 15:47:34;;;;;;;1.73;0.90;;;;;;;;;;6186501;23;20016;-84
2022/07/07 15:50:00;;;;;;;2.15;0.80;;;;;;;;;;6213087;23;20424;-84
2022/07/07 15:52:28;;;;;;;1.38;0.70;;;;;;;;;;6240391;23;20075;-83
2022/07/07 15:54:54;;;;;;;2.65;0.77;;;;;;;;;;6214511;23;20017;-84
2022/07/07 15:57:21;;;;;;;2.17;0.93;;;;;;;;;;6239172;23;20052;-82
2022/07/07 15:59:47;;;;;;;1.63;0.73;;;;;;;;;;6210905;23;20015;-84
2022/07/07 16:02:14;;;;;;;2.80;0.90;;;;;;;;;;6239363;23;20044;-85
2022/07/07 16:04:40;;;;;;;1.50;0.90;;;;;;;;;;6211431;23;19997;-83
2022/07/07 16:07:12;;;;;;;2.40;0.80;;;21.80;91.30;;;;;;6213707;23;19984;-84
2022/07/07 16:09:39;;;;;;;2.03;0.98;;;21.80;91.40;;;;;;6206578;23;20001;-83
2022/07/07 16:12:10;;;;;;;1.33;0.70;;;21.40;92.40;;;;;;6208111;23;20031;-83
2022/07/07 16:14:36;;;;;;;2.83;1.10;;;;;;;;;;6206034;23;20024;-84
2022/07/07 16:17:03;;;;;;;1.35;0.90;;;21.90;91.30;;;;;;6233341;23;20088;-84
2022/07/07 16:19:29;;;;;;;1.45;0.90;;;;;;;;;;6182228;23;20030;-82
2022/07/07 16:21:56;;;;;;;0.80;0.80;;;;;;;;;;6206545;23;19996;-84
2022/07/07 16:24:34;;;;;;;1.33;0.90;;;21.90;91.50;;;;;;6207676;23;20011;-83
2022/07/07 16:27:02;;;;;;;1.58;0.85;;;;;;;;;;6209703;23;20018;-83
2022/07/07 16:29:32;;;;;;;2.95;0.70;;;22.00;91.50;;;;;;6236917;23;20004;-84
2022/07/07 16:31:58;;;;;;;1.27;0.70;;;;;;;;;;6211061;23;20029;-83
2022/07/07 16:34:24;;;;;;;2.30;0.95;;;;;;;;;;6233572;23;20011;-83
2022/07/07 16:36:53;;;;;;;4.40;2.00;;;;;;;;;;6191685;23;20028;-83
2022/07/07 16:39:22;;;;;;;1.75;0.73;;;;;;;;;;6227559;23;20001;-82
2022/07/07 16:41:48;;;;;;;5.38;2.90;;;;;;;;;;6227274;23;20029;-82
2022/07/07 16:44:14;;;;;;;1.17;0.70;;;;;;;;;;6227075;23;20005;-82
2022/07/07 16:46:41;;;;;;;4.22;0.95;;;;;;;;;;6211441;23;20414;-83
2022/07/07 16:49:07;;;;;;;1.33;0.70;;;;;;;;;;6152781;23;20005;-82
2022/07/07 16:51:34;;;;;;;3.60;2.25;;;21.60;91.90;;;;;;6200274;23;20005;-84
2022/07/07 16:54:03;;;;;;;1.73;0.80;;;21.60;92.00;;;;;;6199947;23;20001;-83
2022/07/07 16:56:33;;;;;;;1.17;0.90;;;21.60;92.00;;;;;;6203750;23;20064;-84
2022/07/07 16:59:03;;;;;;;3.90;1.45;;;21.60;92.20;;;;;;6154376;23;20041;-83
2022/07/07 17:01:34;;;;;;;;;;;20.80;92.20;;;;;;6204429;23;20028;-82
2022/07/07 17:04:10;;;;;;;1.90;0.70;;;;;;;;;;6205978;23;19901;-84
2022/07/07 17:06:47;;;;;;;2.83;0.80;;;;;;;;;;6187382;23;20008;-83
2022/07/07 17:09:18;;;;;;;1.50;0.93;;;21.50;92.60;;;;;;6186800;23;19998;-82
2022/07/07 17:11:46;;;;;;;3.17;0.95;;;;;;;;;;6184758;23;19990;-84
2022/07/07 17:14:14;;;;;;;2.20;1.10;;;21.50;92.60;;;;;;6207306;23;20008;-83
2022/07/07 17:16:43;;;;;;;1.88;0.82;;;;;;;;;;6154808;23;20017;-83
2022/07/07 17:19:09;;;;;;;1.60;1.15;;;20.70;92.30;;;;;;6204274;23;20001;-83
2022/07/07 17:21:40;;;;;;;2.97;1.40;;;21.50;92.30;;;;;;6206056;23;20001;-86
2022/07/07 17:24:06;;;;;;;2.20;1.20;;;22.90;93.70;;;;;;6180232;23;20029;-83
2022/07/07 17:26:32;;;;;;;3.40;1.40;;;21.50;94.20;;;;;;6156098;23;19995;-82
2022/07/07 17:29:28;;;;;;;2.60;1.73;;;19.60;93.30;;;;;;6180130;23;20005;-83
2022/07/07 17:31:58;;;;;;;1.80;1.10;;;21.50;92.40;;;;;;6180586;23;20060;-83
2022/07/07 17:34:29;;;;;;;;;;;19.60;93.50;;;;;;6180046;23;20071;-84
2022/07/07 17:36:58;;;;;;;2.33;1.33;;;;;;;;;;6204931;23;19908;-84
2022/07/07 17:39:26;;;;;;;1.75;0.90;;;;;;;;;;6201237;23;20001;-82
2022/07/07 17:41:57;;;;;;;2.55;1.20;;;21.40;92.70;;;;;;6201187;23;20020;-82
2022/07/07 17:44:24;;;;;;;1.98;1.00;;;;;;;;;;6155813;23;20001;-83
2022/07/07 17:46:50;;;;;;;6.10;3.28;;;;;;;;;;6205970;23;20114;-83
2022/07/07 17:49:16;;;;;;;3.08;1.38;;;;;;;;;;6206278;23;20028;-83
2022/07/07 17:51:46;;;;;;;1.60;0.85;;;;;;;;;;6204714;23;20001;-82
2022/07/07 17:54:15;;;;;;;2.42;1.30;;;;;;;;;;6209194;23;20009;-82
2022/07/07 17:56:41;;;;;;;2.88;1.58;;;;;;;;;;6158357;23;20486;-83
2022/07/07 17:59:08;;;;;;;3.10;1.70;;;;;;;;;;6205958;23;20353;-83
2022/07/07 18:01:37;;;;;;;2.15;1.00;;;21.20;93.00;;;;;;6204314;23;20071;-84
2022/07/07 18:04:05;;;;;;;2.20;1.10;;;;;;;;;;6169535;23;20028;-84
2022/07/07 18:06:31;;;;;;;2.47;1.25;;;;;;;;;;6203538;23;20693;-82
2022/07/07 18:09:03;;;;;;;1.75;1.10;;;21.00;93.30;;;;;;6204386;23;20000;-83
2022/07/07 18:11:32;;;;;;;3.10;1.60;;;;;;;;;;6178947;23;20005;-83
2022/07/07 18:13:58;;;;;;;12.00;5.17;;;;;;;;;;6203249;23;20005;-83
2022/07/07 18:16:33;;;;;;;7.47;4.63;;;20.90;93.40;;;;;;6205255;23;19993;-83
2022/07/07 18:19:08;;;;;;;2.50;1.20;;;20.90;94.30;;;;;;6205742;23;20057;-84
2022/07/07 18:21:41;;;;;;;4.13;1.90;;;20.80;93.40;;;;;;6181193;23;20008;-82
2022/07/07 18:24:08;;;;;;;2.88;1.20;;;21.80;94.40;;;;;;6183927;23;20001;-82
2022/07/07 18:26:34;;;;;;;2.92;1.77;;;;;;;;;;6182408;23;20004;-82
2022/07/07 18:29:20;;;;;;;3.58;1.17;;;21.30;93.70;;;;;;6210076;23;19997;-83
2022/07/07 18:31:58;;;;;;;;;;;;;;;;;;;;;
2022/07/07 18:34:25;;;;;;;2.78;1.45;;;;;;;;;;6211563;23;19982;-83
2022/07/07 18:36:57;;;;;;;5.43;1.90;;;20.50;93.50;;;;;;6160386;23;20020;-83
2022/07/07 18:39:23;;;;;;;2.63;1.27;;;;;;;;;;6184339;23;20009;-83
2022/07/07 18:41:52;;;;;;;3.90;1.50;;;;;;;;;;6208336;23;20008;-83
2022/07/07 18:44:28;;;;;;;11.70;4.72;;;;;;;;;;6210996;23;19997;-84
2022/07/07 18:47:47;;;;;;;2.60;1.30;;;20.30;94.00;;;;;;6213968;23;19997;-83
2022/07/07 18:50:26;;;;;;;8.65;3.03;;;20.30;94.20;;;;;;6213511;23;20015;-83
2022/07/07 18:53:13;;;;;;;4.22;1.45;;;20.20;94.40;;;;;;6194708;23;20005;-85
2022/07/07 18:55:40;;;;;;;5.72;3.00;;;;;;;;;;6180006;23;20013;-83
2022/07/07 18:58:23;;;;;;;4.53;2.03;;;20.10;94.60;;;;;;6209008;23;20001;-82
2022/07/07 19:00:52;;;;;;;3.75;1.50;;;;;;;;;;6181857;23;20065;-83
2022/07/07 19:03:21;;;;;;;6.90;1.70;;;;;;;;;;6210783;23;20012;-82
2022/07/07 19:05:50;;;;;;;4.10;2.38;;;20.00;94.80;;;;;;6202064;23;20012;-83
2022/07/07 19:08:16;;;;;;;3.38;1.90;;;;;;;;;;6177854;23;20512;-83
2022/07/07 19:10:42;;;;;;;3.00;1.70;;;;;;;;;;6205455;23;20005;-82
2022/07/07 19:13:09;;;;;;;2.83;1.50;;;;;;;;;;6209206;23;20004;-83
2022/07/07 19:15:35;;;;;;;4.35;2.05;;;20.00;95.10;;;;;;6208452;23;20028;-81
2022/07/07 19:18:08;;;;;;;3.33;1.63;;;19.90;95.10;;;;;;6208226;23;19985;-84
2022/07/07 19:20:34;;;;;;;2.92;1.48;;;;;;;;;;6182734;23;20031;-81
2022/07/07 19:23:12;;;;;;;3.70;1.83;;;19.90;95.30;;;;;;6206645;23;20004;-81
2022/07/07 19:25:41;;;;;;;2.33;1.35;;;;;;;;;;6178373;23;20015;-83
2022/07/07 19:28:13;;;;;;;8.93;2.60;;;19.90;95.40;;;;;;6205858;23;20051;-83
2022/07/07 19:30:40;;;;;;;3.22;1.60;;;;;;;;;;6203097;23;20444;-83
2022/07/07 19:33:11;;;;;;;3.85;2.20;;;19.80;95.40;;;;;;6201898;23;20015;-82
2022/07/07 19:35:37;;;;;;;4.97;2.42;;;19.90;96.20;;;;;;6174393;23;20009;-82
2022/07/07 19:38:07;;;;;;;3.70;1.55;;;22.50;96.90;;;;;;6175459;23;20017;-82
2022/07/07 19:40:38;;;;;;;4.80;1.98;;;19.80;95.50;;;;;;6173177;23;20005;-81
2022/07/07 19:43:15;;;;;;;3.97;1.83;;;19.80;95.30;;;;;;6177781;23;20009;-80
2022/07/07 19:45:41;;;;;;;6.28;2.30;;;;;;;;;;6177634;23;20017;-81
2022/07/07 19:48:07;;;;;;;4.18;2.15;;;;;;;;;;6201156;23;20055;-82
2022/07/07 19:50:34;;;;;;;2.95;1.80;;;19.60;95.50;;;;;;6200624;23;20013;-82
2022/07/07 19:53:00;;;;;;;3.92;1.77;;;;;;;;;;6201104;23;20061;-81
2022/07/07 19:55:27;;;;;;;3.70;2.00;;;;;;;;;;6200962;23;20001;-82
2022/07/07 19:57:53;;;;;;;6.03;1.73;;;;;;;;;;6175318;23;20036;-81
2022/07/07 20:00:20;;;;;;;3.90;2.03;;;;;;;;;;6199771;23;19997;-82
2022/07/07 20:02:47;;;;;;;5.60;2.20;;;;;;;;;;6199878;23;20001;-81
2022/07/07 20:05:17;;;;;;;4.47;1.80;;;;;;;;;;6201445;23;20005;-80
2022/07/07 20:07:46;;;;;;;4.88;2.80;;;;;;;;;;6200055;23;20025;-81
2022/07/07 20:10:12;;;;;;;9.98;2.40;;;;;;;;;;6149094;23;20010;-82
2022/07/07 20:12:59;;;;;;;5.93;2.78;;;;;;;;;;6197525;23;20016;-81
2022/07/07 20:15:25;;;;;;;7.25;2.45;;;19.30;96.10;;;;;;6200025;23;20039;-86
2022/07/07 20:17:53;;;;;;;4.35;2.20;;;19.70;97.00;;;;;;6171218;23;20001;-81
2022/07/07 20:20:20;;;;;;;4.53;2.33;;;19.40;96.90;;;;;;6198342;23;20001;-82
2022/07/07 20:23:03;;;;;;;4.15;1.85;;;19.30;96.10;;;;;;6199509;23;20035;-83
2022/07/07 20:25:37;;;;;;;4.93;2.80;;;16.60;96.10;;;;;;6174435;23;20005;-82
2022/07/07 20:28:03;;;;;;;4.82;2.00;;;;;;;;;;6173289;23;20019;-81
2022/07/07 20:30:34;;;;;;;3.25;1.70;;;19.10;96.30;;;;;;6199996;23;19994;-81
2022/07/07 20:33:03;;;;;;;3.97;2.10;;;18.50;96.80;;;;;;6149301;23;20009;-81
2022/07/07 20:35:29;;;;;;;4.43;2.60;;;19.20;97.50;;;;;;6179114;23;20024;-83
2022/07/07 20:37:58;;;;;;;4.18;1.45;;;;;;;;;;6182363;23;20044;-82
2022/07/07 20:40:26;;;;;;;5.45;2.20;;;19.00;96.40;;;;;;6201081;23;20060;-83
2022/07/07 20:42:53;;;;;;;4.10;1.67;;;;;;;;;;6204840;23;20056;-82
2022/07/07 20:45:21;;;;;;;5.38;1.92;;;;;;;;;;6201799;23;20009;-82
2022/07/07 20:47:48;;;;;;;5.97;2.15;;;;;;;;;;6199482;23;19997;-82
2022/07/07 20:50:20;;;;;;;2.40;1.70;;;20.70;97.00;;;;;;6201061;23;20441;-81
2022/07/07 20:52:46;;;;;;;3.15;1.75;;;;;;;;;;6177780;23;20048;-82
2022/07/07 20:55:13;;;;;;;5.47;2.05;;;;;;;;;;6199984;23;20001;-82
2022/07/07 20:57:40;;;;;;;5.97;3.00;;;18.80;96.40;;;;;;6200590;23;20002;-83
2022/07/07 21:00:08;;;;;;;3.83;1.95;;;19.30;97.20;;;;;;6151670;23;20028;-83
2022/07/07 21:02:37;;;;;;;2.45;1.30;;;19.00;97.20;;;;;;6202552;23;20003;-83
2022/07/07 21:05:04;;;;;;;4.80;2.63;;;;;;;;;;6177366;23;20009;-82
2022/07/07 21:07:30;;;;;;;4.28;1.80;;;;;;;;;;6200321;23;20005;-80
2022/07/07 21:09:56;;;;;;;4.75;1.73;;;18.90;96.00;;;;;;6199817;23;20016;-82
2022/07/07 21:12:25;;;;;;;3.10;1.20;;;18.90;96.00;;;;;;6175800;23;20013;-85
2022/07/07 21:15:16;;;;;;;3.13;1.63;;;18.80;97.10;;;;;;6176288;23;20013;-82
2022/07/07 21:17:42;;;;;;;5.88;1.85;;;19.00;96.50;;;;;;6203938;23;20005;-82
2022/07/07 21:20:08;;;;;;;5.65;2.20;;;18.90;95.80;;;;;;6176969;23;19997;-81
2022/07/07 21:22:34;;;;;;;2.78;1.58;;;;;;;;;;6175522;23;20001;-85
2022/07/07 21:25:01;;;;;;;4.55;1.50;;;18.90;95.90;;;;;;6201394;23;20008;-81
2022/07/07 21:27:30;;;;;;;4.68;1.40;;;20.40;97.70;;;;;;6151521;23;20056;-81
2022/07/07 21:29:59;;;;;;;3.90;1.55;;;;;;;;;;6174154;23;20322;-81
2022/07/07 21:32:26;;;;;;;5.70;1.70;;;;;;;;;;6198354;23;20001;-82
2022/07/07 21:34:59;;;;;;;4.72;2.05;;;18.90;95.90;;;;;;6122612;23;20048;-82
2022/07/07 21:37:29;;;;;;;7.32;2.00;;;18.80;96.00;;;;;;6149043;23;20077;-82
2022/07/07 21:39:55;;;;;;;4.50;2.33;;;;;;;;;;6173580;23;20008;-80
2022/07/07 21:42:21;;;;;;;4.10;1.58;;;18.80;96.00;;;;;;6199536;23;20008;-82
2022/07/07 21:44:47;;;;;;;5.07;2.05;;;17.20;96.60;;;;;;6201039;23;20001;-82
2022/07/07 21:47:14;;;;;;;3.28;1.52;;;18.80;97.40;;;;;;6173849;23;20064;-82
2022/07/07 21:49:41;;;;;;;2.97;1.20;;;;;;;;;;6149792;23;20016;-81
2022/07/07 21:52:27;;;;;;;2.38;1.33;;;18.60;96.50;;;;;;6199189;23;19997;-82
2022/07/07 21:54:53;;;;;;;3.28;1.13;;;;;;;;;;6188878;23;20060;-81
2022/07/07 21:57:19;;;;;;;5.55;1.95;;;18.50;96.60;;;;;;6199316;23;20005;-82